Waukon, Iowa
Current Conditions -  °F | °C
As of 9:35 AM on Friday 24 Oct 2014 (Local Time) from KDEH Reporting Station
Moderate Fog Moderate Fog  
Wind Chill: 52°   Ceiling: 300
Heat Index: 52°   Visibility: 0.25mi
Dew Point: 52°   Wind: 7mph
Humidity: 100%   Direction: 150°SSE
Pressure: 29.98"   Gusts: NA
Location:  43.27°N, 91.48°W
Report Text: KDEH 241435Z AUTO 15006KT 1/4SM FG OVC003 11/11 A2998 RMK AO2
Loading
Personal Weather Stations






























Interactive Weather Map
Tropical Storm Tracking
New forecast layout! Learn more

10-Day Weather Forecast

Advertisements
Track Severe Weather on mobile